createdAt,value
2019-01-26T00:03:01.081Z,98047.44
2019-01-26T00:06:06.007Z,98050.16
2019-01-26T00:09:10.676Z,98047.52
2019-01-26T00:12:15.130Z,98045.69
2019-01-26T00:15:19.559Z,98042.20
2019-01-26T00:18:24.111Z,98036.27
2019-01-26T00:21:28.842Z,98020.00
2019-01-26T00:24:33.573Z,98009.55
2019-01-26T00:27:38.308Z,98015.73
2019-01-26T00:30:43.038Z,98009.34
2019-01-26T00:33:47.464Z,98005.44
2019-01-26T00:36:52.185Z,98017.26
2019-01-26T00:39:56.637Z,98008.09
2019-01-26T00:43:01.074Z,98009.92
2019-01-26T00:46:06.502Z,98008.83
2019-01-26T00:49:10.950Z,98010.87
2019-01-26T00:52:15.474Z,98003.45
2019-01-26T00:55:19.938Z,98004.55
2019-01-26T00:58:24.414Z,98005.51
2019-01-26T01:01:28.822Z,98000.03
2019-01-26T01:04:33.263Z,98002.95
2019-01-26T01:07:38.115Z,97999.05
2019-01-26T01:10:42.525Z,97993.12
2019-01-26T01:13:47.228Z,97987.02
2019-01-26T01:16:51.678Z,97978.88
2019-01-26T01:19:56.378Z,97975.64
2019-01-26T01:23:00.813Z,97967.58
2019-01-26T01:26:05.733Z,97960.67
2019-01-26T01:29:10.241Z,97965.67
2019-01-26T01:32:15.089Z,97963.39
2019-01-26T01:35:19.593Z,97960.81
2019-01-26T01:38:24.033Z,97966.59
2019-01-26T01:41:28.475Z,97966.52
2019-01-26T01:44:32.915Z,97967.73
2019-01-26T01:47:37.390Z,97974.91
2019-01-26T01:50:41.801Z,97976.73
2019-01-26T01:53:46.253Z,97985.62
2019-01-26T01:56:50.687Z,97990.20
2019-01-26T01:59:55.416Z,97983.50
2019-01-26T02:03:00.145Z,97977.26
2019-01-26T02:06:04.818Z,97974.63
2019-01-26T02:09:09.599Z,97960.03
2019-01-26T02:12:14.342Z,97961.99
2019-01-26T02:15:18.987Z,97956.70
2019-01-26T02:18:23.425Z,97953.10
2019-01-26T02:21:27.881Z,97946.59
2019-01-26T02:24:32.309Z,97940.73
2019-01-26T02:27:36.755Z,97931.64
2019-01-26T02:30:41.184Z,97925.67
2019-01-26T02:33:45.920Z,97923.84
2019-01-26T02:36:50.352Z,97930.61
2019-01-26T02:39:55.065Z,97930.09
2019-01-26T02:42:59.803Z,97925.68
2019-01-26T02:46:04.296Z,97925.31
2019-01-26T02:49:08.734Z,97933.06
2019-01-26T02:52:13.178Z,97928.73
2019-01-26T02:55:17.904Z,97915.20
2019-01-26T02:58:22.641Z,97908.01
2019-01-26T03:01:27.061Z,97909.91
2019-01-26T03:04:31.579Z,97910.79
2019-01-26T03:07:36.026Z,97908.89
2019-01-26T03:10:40.466Z,97909.17
2019-01-26T03:13:44.926Z,97901.25
2019-01-26T03:16:49.695Z,97899.77
2019-01-26T03:19:54.140Z,97899.48
2019-01-26T03:22:58.575Z,97890.26
2019-01-26T03:26:03.018Z,97894.94
2019-01-26T03:29:07.525Z,97878.82
2019-01-26T03:32:11.960Z,97875.59
2019-01-26T03:35:16.845Z,97874.06
2019-01-26T03:38:21.281Z,97868.08
2019-01-26T03:41:25.720Z,97862.95
2019-01-26T03:44:30.169Z,97865.78
2019-01-26T03:47:34.615Z,97859.11
2019-01-26T03:50:39.378Z,97854.91
2019-01-26T03:53:44.112Z,97852.55
2019-01-26T03:56:48.582Z,97848.50
2019-01-26T03:59:53.017Z,97843.80
2019-01-26T04:02:57.513Z,97848.16
2019-01-26T04:06:02.318Z,97844.42
2019-01-26T04:09:08.848Z,97829.93
2019-01-26T04:12:13.619Z,97835.60
2019-01-26T04:15:20.413Z,97829.97
2019-01-26T04:18:24.847Z,97831.55
2019-01-26T04:21:29.291Z,97833.27
2019-01-26T04:24:33.754Z,97830.11
2019-01-26T04:27:38.624Z,97833.34
2019-01-26T04:30:43.077Z,97825.45
2019-01-26T04:33:47.512Z,97823.13
2019-01-26T04:36:51.968Z,97821.05
2019-01-26T04:39:56.699Z,97825.08
2019-01-26T04:43:01.432Z,97819.42
2019-01-26T04:46:06.161Z,97819.98
2019-01-26T04:49:10.893Z,97819.03
2019-01-26T04:52:15.339Z,97822.19
2019-01-26T04:55:21.627Z,97829.00
2019-01-26T04:58:26.320Z,97821.50
2019-01-26T05:01:31.063Z,97830.94
2019-01-26T05:04:35.485Z,97824.86
2019-01-26T05:07:40.209Z,97826.78
2019-01-26T05:10:44.719Z,97824.25
2019-01-26T05:13:49.466Z,97829.99
2019-01-26T05:16:53.905Z,97827.20
2019-01-26T05:19:58.339Z,97831.13
2019-01-26T05:23:02.785Z,97834.78
2019-01-26T05:26:07.226Z,97837.73
2019-01-26T05:29:11.993Z,97836.14
2019-01-26T05:32:16.733Z,97836.75
2019-01-26T05:35:21.160Z,97839.66
2019-01-26T05:38:25.866Z,97832.63
2019-01-26T05:41:30.308Z,97829.22
2019-01-26T05:44:35.027Z,97820.09
2019-01-26T05:47:47.677Z,97827.84
2019-01-26T05:50:45.627Z,97828.31
2019-01-26T05:53:50.343Z,97818.42
2019-01-26T05:56:55.072Z,97821.30
2019-01-26T05:59:59.528Z,97823.48
2019-01-26T06:03:03.940Z,97825.03
2019-01-26T06:06:08.655Z,97815.95
2019-01-26T06:09:13.101Z,97811.48
2019-01-26T06:12:17.542Z,97814.16
2019-01-26T06:15:22.336Z,97820.58
2019-01-26T06:18:27.062Z,97836.09
2019-01-26T06:21:31.502Z,97832.75
2019-01-26T06:24:35.938Z,97834.31
2019-01-26T06:27:40.459Z,97844.89
2019-01-26T06:30:45.164Z,97843.84
2019-01-26T06:33:49.667Z,97850.21
2019-01-26T06:36:54.418Z,97843.64
2019-01-26T06:39:59.165Z,97845.81
2019-01-26T06:43:03.881Z,97842.38
2019-01-26T06:46:08.611Z,97831.17
2019-01-26T06:49:13.448Z,97828.84
2019-01-26T06:52:18.179Z,97827.58
2019-01-26T06:55:22.616Z,97832.31
2019-01-26T06:58:27.338Z,97831.06
2019-01-26T07:01:31.767Z,97844.44
2019-01-26T07:04:40.758Z,97850.08
2019-01-26T07:07:45.515Z,97857.52
2019-01-26T07:10:49.964Z,97860.52
2019-01-26T07:13:54.397Z,97861.52
2019-01-26T07:16:59.104Z,97867.70
2019-01-26T07:20:05.366Z,97863.70
2019-01-26T07:23:10.202Z,97858.14
2019-01-26T07:26:14.928Z,97856.34
2019-01-26T07:29:19.360Z,97843.45
2019-01-26T07:32:24.079Z,97837.61
2019-01-26T07:35:28.811Z,97843.48
2019-01-26T07:38:33.649Z,97849.87
2019-01-26T07:41:38.369Z,97844.74
2019-01-26T07:44:42.795Z,97838.87
2019-01-26T07:47:47.257Z,97833.86
2019-01-26T07:50:52.055Z,97840.24
2019-01-26T07:53:56.786Z,97838.52
2019-01-26T07:57:01.520Z,97830.92
2019-01-26T08:00:13.641Z,97832.47
2019-01-26T08:03:18.454Z,97829.19
2019-01-26T08:06:23.183Z,97824.88
2019-01-26T08:09:27.623Z,97828.95
2019-01-26T08:12:32.350Z,97823.25
2019-01-26T08:15:37.178Z,97819.67
2019-01-26T08:18:42.731Z,97820.65
2019-01-26T08:21:47.449Z,97822.30
2019-01-26T08:24:52.290Z,97817.73
2019-01-26T08:27:56.780Z,97827.33
2019-01-26T08:31:01.223Z,97824.34
2019-01-26T08:34:05.970Z,97825.10
2019-01-26T08:37:10.695Z,97835.34
2019-01-26T08:40:18.539Z,97830.33
2019-01-26T08:43:22.978Z,97823.68
2019-01-26T08:46:27.408Z,97820.33
2019-01-26T08:49:32.173Z,97814.52
2019-01-26T08:52:36.904Z,97815.70
2019-01-26T08:55:41.343Z,97810.16
2019-01-26T08:58:46.063Z,97812.09
2019-01-26T09:01:52.133Z,97824.09
2019-01-26T09:04:57.341Z,97820.81
2019-01-26T09:08:01.763Z,97822.81
2019-01-26T09:11:06.725Z,97820.72
2019-01-26T09:14:11.179Z,97818.36
2019-01-26T09:17:16.018Z,97823.98
2019-01-26T09:20:20.649Z,97823.36
2019-01-26T09:23:25.351Z,97831.55
2019-01-26T09:26:29.773Z,97835.27
2019-01-26T09:29:34.495Z,97841.05
2019-01-26T09:32:38.923Z,97831.49
2019-01-26T09:35:43.647Z,97829.55
2019-01-26T09:38:48.385Z,97807.34
2019-01-26T09:41:52.817Z,97811.63
2019-01-26T09:44:57.735Z,97801.14
2019-01-26T09:48:02.723Z,97798.31
2019-01-26T09:51:07.507Z,97799.30
2019-01-26T09:54:12.004Z,97802.73
2019-01-26T09:57:16.445Z,97792.06
2019-01-26T10:00:26.852Z,97791.80
2019-01-26T10:03:31.549Z,97790.00
2019-01-26T10:06:36.292Z,97793.17
2019-01-26T10:09:41.022Z,97802.81
2019-01-26T10:12:45.463Z,97801.53
2019-01-26T10:15:50.188Z,97807.58
2019-01-26T10:18:54.978Z,97801.31
2019-01-26T10:21:59.411Z,97802.98
2019-01-26T10:25:04.475Z,97803.16
2019-01-26T10:28:09.295Z,97793.67
2019-01-26T10:31:14.024Z,97799.33
2019-01-26T10:34:18.455Z,97796.16
2019-01-26T10:37:24.156Z,97798.37
2019-01-26T10:40:46.852Z,97795.56
2019-01-26T10:43:53.337Z,97793.52
2019-01-26T10:46:58.056Z,97789.02
2019-01-26T10:50:02.487Z,97781.47
2019-01-26T10:53:07.212Z,97779.48
2019-01-26T10:56:11.646Z,97763.22
2019-01-26T10:59:16.082Z,97762.41
2019-01-26T11:02:21.007Z,97753.42
2019-01-26T11:05:25.725Z,97755.52
2019-01-26T11:08:30.456Z,97751.85
2019-01-26T11:11:35.191Z,97754.98
2019-01-26T11:14:39.611Z,97756.22
2019-01-26T11:17:44.343Z,97750.14
2019-01-26T11:20:49.069Z,97740.00
2019-01-26T11:23:53.812Z,97738.09
2019-01-26T11:26:58.539Z,97733.24
2019-01-26T11:30:03.360Z,97720.13
2019-01-26T11:33:07.802Z,97730.25
2019-01-26T11:36:12.228Z,97725.93
2019-01-26T11:39:16.949Z,97718.20
2019-01-26T11:42:21.379Z,97719.03
2019-01-26T11:45:27.731Z,97708.91
2019-01-26T11:48:33.809Z,97712.16
2019-01-26T11:51:42.479Z,97706.58
2019-01-26T11:54:48.552Z,97696.97
2019-01-26T11:57:53.308Z,97681.00
2019-01-26T12:01:08.359Z,97676.20
2019-01-26T12:04:17.340Z,97672.98
2019-01-26T12:07:21.765Z,97665.78
2019-01-26T12:10:26.195Z,97667.91
2019-01-26T12:13:30.993Z,97672.98
2019-01-26T12:16:35.832Z,97667.39
2019-01-26T12:19:40.563Z,97665.27
2019-01-26T12:22:44.993Z,97653.52
2019-01-26T12:25:49.728Z,97661.50
2019-01-26T12:28:54.161Z,97660.69
2019-01-26T12:31:58.875Z,97653.18
2019-01-26T12:35:04.935Z,97651.04
2019-01-26T12:38:09.369Z,97649.98
2019-01-26T12:41:13.793Z,97649.70
2019-01-26T12:44:18.231Z,97643.84
2019-01-26T12:47:22.953Z,97644.64
2019-01-26T12:50:27.390Z,97640.65
2019-01-26T12:53:31.887Z,97637.16
2019-01-26T12:56:36.615Z,97630.46
2019-01-26T12:59:41.060Z,97633.97
2019-01-26T13:02:45.766Z,97624.34
2019-01-26T13:05:50.495Z,97627.80
2019-01-26T13:08:54.933Z,97633.36
2019-01-26T13:11:59.794Z,97630.66
2019-01-26T13:15:05.617Z,97630.36
2019-01-26T13:18:10.055Z,97626.13
2019-01-26T13:21:14.504Z,97622.11
2019-01-26T13:24:19.535Z,97621.84
2019-01-26T13:27:23.993Z,97616.79
2019-01-26T13:30:28.860Z,97618.39
2019-01-26T13:33:34.457Z,97611.44
2019-01-26T13:36:38.944Z,97610.92
2019-01-26T13:39:43.392Z,97603.73
2019-01-26T13:42:48.111Z,97606.94
2019-01-26T13:45:52.594Z,97602.39
2019-01-26T13:48:58.705Z,97606.66
2019-01-26T13:52:03.527Z,97601.33
2019-01-26T13:55:18.540Z,97594.66
2019-01-26T13:58:23.060Z,97593.61
2019-01-26T14:01:27.490Z,97586.14
2019-01-26T14:04:31.932Z,97594.66
2019-01-26T14:07:36.908Z,97587.49
2019-01-26T14:10:41.636Z,97583.25
2019-01-26T14:13:46.376Z,97580.00
2019-01-26T14:16:51.089Z,97587.45
2019-01-26T14:19:55.821Z,97587.76
2019-01-26T14:23:00.605Z,97586.12
2019-01-26T14:26:05.792Z,97587.97
2019-01-26T14:29:10.524Z,97581.58
2019-01-26T14:32:15.240Z,97577.27
2019-01-26T14:35:19.689Z,97574.35
2019-01-26T14:38:24.113Z,97567.97
2019-01-26T14:41:28.822Z,97569.08
2019-01-26T14:44:33.261Z,97558.43
2019-01-26T14:47:37.688Z,97562.69
2019-01-26T14:50:42.611Z,97557.34
2019-01-26T14:53:47.880Z,97554.14
2019-01-26T14:56:52.895Z,97547.73
2019-01-26T14:59:58.474Z,97557.09
2019-01-26T15:03:02.879Z,97551.20
2019-01-26T15:06:07.308Z,97544.83
2019-01-26T15:09:11.731Z,97548.81
2019-01-26T15:12:16.460Z,97544.55
2019-01-26T15:15:22.096Z,97542.72
2019-01-26T15:18:26.822Z,97535.77
2019-01-26T15:21:31.259Z,97541.33
2019-01-26T15:24:35.695Z,97537.85
2019-01-26T15:27:40.134Z,97539.97
2019-01-26T15:30:44.921Z,97539.16
2019-01-26T15:33:49.345Z,97526.66
2019-01-26T15:36:54.079Z,97528.02
2019-01-26T15:39:58.502Z,97521.34
2019-01-26T15:43:03.227Z,97518.11
2019-01-26T15:46:07.966Z,97515.72
2019-01-26T15:49:12.402Z,97516.50
2019-01-26T15:52:17.234Z,97513.84
2019-01-26T15:55:26.968Z,97502.14
2019-01-26T15:58:31.399Z,97499.48
2019-01-26T16:01:36.126Z,97498.67
2019-01-26T16:04:40.555Z,97505.05
2019-01-26T16:07:44.989Z,97501.07
2019-01-26T16:10:49.410Z,97505.06
2019-01-26T16:13:53.848Z,97498.92
2019-01-26T16:16:58.327Z,97492.53
2019-01-26T16:20:02.804Z,97493.56
2019-01-26T16:23:09.504Z,97487.42
2019-01-26T16:26:13.384Z,97489.54
2019-01-26T16:29:17.884Z,97484.98
2019-01-26T16:32:22.609Z,97483.11
2019-01-26T16:35:27.546Z,97474.92
2019-01-26T16:38:31.982Z,97475.20
2019-01-26T16:41:36.416Z,97464.05
2019-01-26T16:44:40.843Z,97458.97
2019-01-26T16:47:45.559Z,97462.69
2019-01-26T16:50:49.996Z,97464.81
2019-01-26T16:53:54.708Z,97454.72
2019-01-26T16:56:59.139Z,97452.85
2019-01-26T17:00:05.288Z,97445.70
2019-01-26T17:03:10.327Z,97432.66
2019-01-26T17:06:14.914Z,97431.59
2019-01-26T17:09:19.601Z,97425.99
2019-01-26T17:12:24.349Z,97420.66
2019-01-26T17:15:28.785Z,97413.21
2019-01-26T17:18:33.218Z,97401.97
2019-01-26T17:21:37.666Z,97401.98
2019-01-26T17:24:42.088Z,97403.05
2019-01-26T17:27:48.922Z,97406.50
2019-01-26T17:30:53.922Z,97404.16
2019-01-26T17:33:58.351Z,97397.98
2019-01-26T17:37:02.782Z,97391.66
2019-01-26T17:40:12.194Z,97401.49
2019-01-26T17:43:16.706Z,97394.86
2019-01-26T17:46:21.138Z,97392.75
2019-01-26T17:49:25.590Z,97384.23
2019-01-26T17:52:30.027Z,97381.56
2019-01-26T17:55:34.472Z,97377.57
2019-01-26T17:58:39.200Z,97376.48
2019-01-26T18:01:43.904Z,97367.71
2019-01-26T18:04:48.631Z,97372.52
2019-01-26T18:07:53.057Z,97372.78
2019-01-26T18:10:57.883Z,97369.56
2019-01-26T18:14:02.323Z,97370.63
2019-01-26T18:17:07.283Z,97371.69
2019-01-26T18:20:17.119Z,97372.77
2019-01-26T18:23:23.674Z,97370.39
2019-01-26T18:26:28.101Z,97371.70
2019-01-26T18:29:32.826Z,97362.91
2019-01-26T18:32:37.254Z,97360.27
2019-01-26T18:35:41.689Z,97350.38
2019-01-26T18:38:46.404Z,97346.61
2019-01-26T18:41:50.829Z,97342.64
2019-01-26T18:44:55.267Z,97337.55
2019-01-26T18:47:59.695Z,97331.43
2019-01-26T18:51:04.408Z,97328.25
2019-01-26T18:54:08.846Z,97321.08
2019-01-26T18:57:13.276Z,97316.78
2019-01-26T19:00:27.690Z,97313.88
2019-01-26T19:03:42.687Z,97314.41
2019-01-26T19:06:47.425Z,97313.09
2019-01-26T19:09:52.143Z,97304.55
2019-01-26T19:12:56.570Z,97308.81
2019-01-26T19:16:01.393Z,97300.86
2019-01-26T19:19:06.132Z,97297.67
2019-01-26T19:22:10.558Z,97293.93
2019-01-26T19:25:20.099Z,97290.23
2019-01-26T19:28:24.837Z,97287.55
2019-01-26T19:31:29.444Z,97282.53
2019-01-26T19:34:33.917Z,97272.13
2019-01-26T19:37:38.716Z,97270.00
2019-01-26T19:40:43.221Z,97267.08
2019-01-26T19:43:47.758Z,97263.89
2019-01-26T19:46:52.496Z,97264.41
2019-01-26T19:49:57.244Z,97255.39
2019-01-26T19:53:01.710Z,97246.32
2019-01-26T19:56:06.423Z,97234.91
2019-01-26T19:59:11.126Z,97235.15
2019-01-26T20:02:15.633Z,97226.09
2019-01-26T20:05:25.338Z,97219.73
2019-01-26T20:08:29.887Z,97209.63
2019-01-26T20:11:34.638Z,97209.35
2019-01-26T20:14:39.467Z,97205.12
2019-01-26T20:17:46.061Z,97206.97
2019-01-26T20:20:50.636Z,97206.98
2019-01-26T20:23:55.407Z,97204.33
2019-01-26T20:26:59.849Z,97201.66
2019-01-26T20:30:07.647Z,97195.00
2019-01-26T20:33:12.087Z,97185.44
2019-01-26T20:36:16.522Z,97171.33
2019-01-26T20:39:20.979Z,97176.39
2019-01-26T20:42:25.408Z,97158.86
2019-01-26T20:45:30.979Z,97164.97
2019-01-26T20:48:35.410Z,97157.50
2019-01-26T20:51:40.138Z,97150.06
2019-01-26T20:54:44.563Z,97140.76
2019-01-26T20:57:49.480Z,97139.97
2019-01-26T21:00:54.286Z,97126.92
2019-01-26T21:03:58.974Z,97123.47
2019-01-26T21:07:03.687Z,97107.80
2019-01-26T21:10:18.361Z,97100.38
2019-01-26T21:13:22.788Z,97101.43
2019-01-26T21:16:27.221Z,97081.52
2019-01-26T21:19:31.644Z,97073.25
2019-01-26T21:22:36.078Z,97068.47
2019-01-26T21:25:40.513Z,97063.17
2019-01-26T21:28:45.298Z,97050.14
2019-01-26T21:31:50.056Z,97041.66
2019-01-26T21:34:54.483Z,97025.69
2019-01-26T21:37:58.922Z,97026.50
2019-01-26T21:41:03.501Z,97011.59
2019-01-26T21:44:07.929Z,97003.88
2019-01-26T21:47:12.606Z,97008.44
2019-01-26T21:50:24.473Z,96998.31
2019-01-26T21:53:28.934Z,96994.59
2019-01-26T21:56:33.613Z,96993.80
2019-01-26T21:59:38.343Z,96986.88
2019-01-26T22:02:42.780Z,96982.63
2019-01-26T22:05:47.497Z,96980.48
2019-01-26T22:08:51.929Z,96981.53
2019-01-26T22:11:56.652Z,96974.33
2019-01-26T22:15:01.085Z,96977.23
2019-01-26T22:18:05.896Z,96982.55
2019-01-26T22:21:10.646Z,96972.17
2019-01-26T22:24:15.083Z,96970.84
2019-01-26T22:27:19.996Z,96965.53
2019-01-26T22:30:34.004Z,96964.16
2019-01-26T22:33:38.458Z,96962.34
2019-01-26T22:36:43.200Z,96959.95
2019-01-26T22:39:47.980Z,96949.33
2019-01-26T22:42:52.673Z,96938.97
2019-01-26T22:45:57.394Z,96930.43
2019-01-26T22:49:01.831Z,96921.92
2019-01-26T22:52:06.320Z,96913.19
2019-01-26T22:55:15.399Z,96910.55
2019-01-26T22:58:20.104Z,96910.28
2019-01-26T23:01:25.763Z,96909.50
2019-01-26T23:04:38.450Z,96904.44
2019-01-26T23:07:42.874Z,96903.88
2019-01-26T23:11:03.353Z,96897.78
2019-01-26T23:14:27.057Z,96891.11
2019-01-26T23:18:05.816Z,96892.69
2019-01-26T23:21:49.645Z,96884.19
2019-01-26T23:25:28.491Z,96882.33
2019-01-26T23:28:49.697Z,96879.14
2019-01-26T23:31:54.430Z,96868.75
2019-01-26T23:34:59.151Z,96865.48
2019-01-26T23:38:05.827Z,96852.27
2019-01-26T23:41:10.569Z,96838.77
2019-01-26T23:44:15.003Z,96840.88
2019-01-26T23:47:19.442Z,96823.88
2019-01-26T23:50:23.882Z,96825.48
2019-01-26T23:53:28.573Z,96815.66
2019-01-26T23:56:33.005Z,96807.16
2019-01-26T23:59:37.438Z,96798.09
